createdAt,value
2022-10-06T00:03:10.447Z,20.08
2022-10-06T00:07:55.592Z,15.52
2022-10-06T00:12:48.715Z,18.13
2022-10-06T00:17:33.787Z,23.95
2022-10-06T00:22:19.144Z,17.92
2022-10-06T00:27:04.681Z,22.42
2022-10-06T00:31:52.666Z,21.15
2022-10-06T00:36:37.870Z,18.33
2022-10-06T00:41:23.216Z,23.67
2022-10-06T00:46:10.356Z,19.15
2022-10-06T00:51:00.940Z,17.95
2022-10-06T00:55:46.189Z,10.68
2022-10-06T01:00:32.333Z,9.88
2022-10-06T01:05:28.889Z,7.10
2022-10-06T01:10:16.852Z,7.25
2022-10-06T01:15:02.082Z,7.07
2022-10-06T01:19:52.358Z,5.95
2022-10-06T01:24:40.419Z,6.68
2022-10-06T01:29:25.920Z,6.03
2022-10-06T01:34:11.027Z,10.02
2022-10-06T01:38:56.309Z,3.33
2022-10-06T01:43:45.151Z,6.18
2022-10-06T01:48:31.375Z,4.07
2022-10-06T01:53:16.635Z,6.65
2022-10-06T01:58:02.142Z,8.45
2022-10-06T02:02:50.935Z,5.38
2022-10-06T02:07:37.773Z,4.50
2022-10-06T02:12:23.287Z,6.47
2022-10-06T02:17:09.195Z,2.47
2022-10-06T02:21:58.434Z,3.72
2022-10-06T02:26:43.888Z,2.47
2022-10-06T02:31:29.025Z,3.85
2022-10-06T02:36:16.818Z,5.18
2022-10-06T02:41:05.010Z,3.45
2022-10-06T02:45:56.653Z,3.50
2022-10-06T02:50:41.905Z,2.75
2022-10-06T02:55:27.370Z,3.95
2022-10-06T03:00:16.646Z,3.08
2022-10-06T03:05:02.015Z,1.77
2022-10-06T03:09:47.229Z,4.47
2022-10-06T03:14:32.546Z,3.05
2022-10-06T03:19:20.199Z,7.55
2022-10-06T03:24:05.875Z,3.97
2022-10-06T03:28:50.976Z,5.65
2022-10-06T03:33:36.667Z,4.03
2022-10-06T03:38:24.674Z,3.33
2022-10-06T03:43:13.169Z,3.83
2022-10-06T03:47:59.403Z,4.15
2022-10-06T03:52:44.765Z,2.95
2022-10-06T03:57:32.390Z,2.97
2022-10-06T04:02:17.768Z,4.50
2022-10-06T04:07:02.872Z,5.57
2022-10-06T04:11:48.383Z,4.85
2022-10-06T04:16:38.078Z,4.72
2022-10-06T04:21:24.247Z,4.85
2022-10-06T04:26:12.334Z,6.53
2022-10-06T04:31:00.879Z,3.08
2022-10-06T04:35:48.496Z,1.73
2022-10-06T04:40:33.782Z,1.77
2022-10-06T04:45:18.937Z,2.58
2022-10-06T04:50:04.272Z,4.82
2022-10-06T04:54:51.935Z,2.58
2022-10-06T04:59:49.610Z,5.13
2022-10-06T05:04:34.659Z,4.80
2022-10-06T05:09:19.949Z,4.90
2022-10-06T05:14:07.609Z,3.83
2022-10-06T05:18:53.220Z,6.13
2022-10-06T05:23:41.498Z,4.78
2022-10-06T05:28:28.168Z,7.43
2022-10-06T05:33:16.499Z,6.10
2022-10-06T05:38:01.761Z,9.23
2022-10-06T05:42:46.743Z,6.80
2022-10-06T05:47:32.211Z,6.68
2022-10-06T05:52:19.847Z,6.57
2022-10-06T05:57:05.111Z,5.68
2022-10-06T06:01:50.201Z,5.35
2022-10-06T06:06:37.902Z,5.05
2022-10-06T06:11:27.892Z,8.85
2022-10-06T06:16:17.321Z,7.95
2022-10-06T06:21:04.163Z,5.03
2022-10-06T06:26:02.494Z,7.55
2022-10-06T06:30:50.873Z,7.85
2022-10-06T06:35:36.173Z,3.55
2022-10-06T06:40:21.196Z,6.13
2022-10-06T06:45:07.138Z,7.88
2022-10-06T06:49:55.174Z,5.70
2022-10-06T06:54:40.657Z,4.97
2022-10-06T06:59:25.738Z,3.83
2022-10-06T07:04:11.023Z,4.63
2022-10-06T07:09:00.287Z,4.55
2022-10-06T07:13:45.906Z,2.70
2022-10-06T07:18:43.283Z,1.90
2022-10-06T07:23:41.070Z,11.15
2022-10-06T07:28:30.908Z,3.03
2022-10-06T07:33:16.663Z,3.22
2022-10-06T07:38:08.156Z,4.40
2022-10-06T07:42:54.671Z,5.53
2022-10-06T07:47:42.287Z,3.10
2022-10-06T07:52:29.075Z,4.93
2022-10-06T07:57:14.203Z,3.70
2022-10-06T08:01:59.603Z,3.65
2022-10-06T08:06:47.819Z,4.57
2022-10-06T08:11:33.578Z,4.75
2022-10-06T08:16:20.182Z,4.40
2022-10-06T08:21:14.037Z,7.68
2022-10-06T08:26:01.839Z,7.18
2022-10-06T08:30:47.131Z,8.25
2022-10-06T08:35:33.037Z,6.05
2022-10-06T08:40:18.643Z,8.35
2022-10-06T08:45:09.590Z,9.80
2022-10-06T08:49:57.192Z,7.23
2022-10-06T08:54:51.342Z,9.32
2022-10-06T08:59:38.260Z,7.90
2022-10-06T09:04:29.021Z,5.45
2022-10-06T09:09:26.470Z,7.32
2022-10-06T09:14:19.907Z,5.68
2022-10-06T09:19:19.123Z,6.53
2022-10-06T09:24:13.608Z,5.15
2022-10-06T09:28:59.942Z,7.55
2022-10-06T09:33:45.343Z,4.95
2022-10-06T09:38:49.162Z,5.05
2022-10-06T09:43:37.124Z,3.15
2022-10-06T09:48:25.201Z,3.72
2022-10-06T09:53:22.166Z,5.53
2022-10-06T09:58:21.326Z,4.20
2022-10-06T10:03:11.904Z,6.38
2022-10-06T10:08:10.236Z,7.30
2022-10-06T10:12:56.958Z,9.00
2022-10-06T10:17:47.913Z,4.18
2022-10-06T10:22:39.371Z,6.15
2022-10-06T10:27:31.951Z,7.45
2022-10-06T10:32:22.145Z,7.45
2022-10-06T10:37:13.096Z,8.73
2022-10-06T10:42:05.235Z,7.07
2022-10-06T10:51:42.210Z,3.25
2022-10-06T10:56:29.618Z,3.17
2022-10-06T11:01:34.234Z,3.75
2022-10-06T11:06:34.794Z,4.72
2022-10-06T11:11:31.146Z,4.47
2022-10-06T11:16:26.850Z,5.40
2022-10-06T11:21:19.654Z,4.47
2022-10-06T11:26:12.691Z,4.03
2022-10-06T11:31:06.703Z,4.70
2022-10-06T11:35:52.303Z,3.55
2022-10-06T11:40:50.925Z,6.15
2022-10-06T11:45:45.070Z,2.90
2022-10-06T11:50:38.734Z,3.40
2022-10-06T11:55:26.675Z,4.50
2022-10-06T12:00:41.899Z,2.15
2022-10-06T12:10:53.131Z,6.78
2022-10-06T12:21:27.917Z,5.82
2022-10-06T12:26:24.474Z,1.75
2022-10-06T12:31:30.028Z,2.60
2022-10-06T12:36:23.275Z,2.58
2022-10-06T12:41:13.296Z,4.00
2022-10-06T12:46:01.827Z,3.72
2022-10-06T12:50:48.135Z,2.67
2022-10-06T12:55:49.222Z,1.77
2022-10-06T13:00:37.325Z,2.43
2022-10-06T13:05:22.729Z,4.03
2022-10-06T13:10:22.243Z,3.70
2022-10-06T13:15:24.050Z,4.32
2022-10-06T13:25:03.693Z,3.92
2022-10-06T13:29:49.374Z,4.03
2022-10-06T13:34:43.373Z,3.13
2022-10-06T13:39:32.013Z,2.80
2022-10-06T13:44:35.155Z,6.22
2022-10-06T13:49:24.870Z,1.67
2022-10-06T13:54:29.633Z,4.00
2022-10-06T13:59:33.430Z,2.58
2022-10-06T14:04:21.137Z,2.67
2022-10-06T14:09:14.809Z,5.57
2022-10-06T14:14:02.702Z,4.55
2022-10-06T14:18:49.717Z,2.08
2022-10-06T14:23:36.580Z,5.15
2022-10-06T14:28:24.255Z,3.63
2022-10-06T14:33:09.617Z,3.40
2022-10-06T14:37:54.634Z,1.90
2022-10-06T14:42:40.044Z,2.30
2022-10-06T14:47:27.806Z,4.93
2022-10-06T14:52:13.149Z,3.05
2022-10-06T14:56:58.453Z,2.33
2022-10-06T15:01:43.793Z,3.08
2022-10-06T15:06:44.284Z,3.03
2022-10-06T15:11:31.469Z,3.83
2022-10-06T15:16:17.054Z,6.72
2022-10-06T15:21:05.674Z,4.78
2022-10-06T15:26:17.564Z,5.93
2022-10-06T15:31:02.956Z,4.18
2022-10-06T15:36:01.988Z,4.32
2022-10-06T15:40:47.339Z,5.57
2022-10-06T15:45:35.003Z,10.45
2022-10-06T15:50:20.592Z,4.95
2022-10-06T15:55:05.730Z,4.80
2022-10-06T15:59:51.603Z,5.00
2022-10-06T16:04:57.157Z,6.28
2022-10-06T16:09:44.192Z,5.10
2022-10-06T16:14:29.519Z,6.07
2022-10-06T16:19:14.949Z,5.00
2022-10-06T16:24:03.270Z,5.32
2022-10-06T16:28:48.878Z,5.53
2022-10-06T16:33:34.024Z,5.00
2022-10-06T16:38:19.663Z,5.15
2022-10-06T16:43:07.246Z,3.58
2022-10-06T16:47:52.554Z,4.93
2022-10-06T16:52:37.867Z,5.35
2022-10-06T16:57:24.933Z,4.70
2022-10-06T17:02:12.630Z,6.88
2022-10-06T17:06:59.888Z,4.75
2022-10-06T17:11:46.623Z,3.20
2022-10-06T17:16:34.181Z,3.92
2022-10-06T17:21:44.200Z,2.45
2022-10-06T17:26:28.684Z,5.03
2022-10-06T17:31:13.762Z,3.55
2022-10-06T17:35:59.329Z,4.55
2022-10-06T17:40:48.923Z,5.50
2022-10-06T17:45:34.266Z,4.30
2022-10-06T17:50:19.836Z,3.10
2022-10-06T17:55:05.935Z,5.43
2022-10-06T17:59:53.591Z,3.78
2022-10-06T18:04:39.344Z,3.75
2022-10-06T18:09:24.990Z,3.78
2022-10-06T18:14:11.995Z,4.78
2022-10-06T18:19:01.706Z,6.10
2022-10-06T18:23:47.229Z,8.40
2022-10-06T18:28:32.502Z,5.20
2022-10-06T18:38:26.370Z,3.80
2022-10-06T18:43:11.397Z,7.25
2022-10-06T18:48:17.986Z,6.78
2022-10-06T18:53:04.447Z,3.22
2022-10-06T18:57:52.236Z,5.85
2022-10-06T19:02:37.566Z,8.10
2022-10-06T19:07:22.597Z,5.07
2022-10-06T19:12:08.200Z,5.53
2022-10-06T19:16:59.330Z,5.13
2022-10-06T19:21:46.870Z,4.78
2022-10-06T19:26:31.923Z,4.53
2022-10-06T19:31:20.161Z,9.23
2022-10-06T19:36:09.071Z,6.82
2022-10-06T19:40:54.356Z,7.80
2022-10-06T19:45:39.519Z,6.28
2022-10-06T19:50:25.338Z,4.53
2022-10-06T19:55:13.026Z,9.40
2022-10-06T19:59:58.567Z,7.43
2022-10-06T20:04:45.524Z,6.85
2022-10-06T20:09:31.921Z,6.28
2022-10-06T20:14:21.484Z,5.63
2022-10-06T20:19:07.575Z,6.88
2022-10-06T20:23:54.145Z,5.22
2022-10-06T20:28:39.622Z,5.15
2022-10-06T20:33:27.565Z,7.22
2022-10-06T20:38:12.847Z,4.45
2022-10-06T20:42:59.630Z,6.38
2022-10-06T20:47:45.697Z,6.45
2022-10-06T20:52:34.507Z,8.63
2022-10-06T20:57:19.898Z,6.68
2022-10-06T21:02:05.535Z,7.03
2022-10-06T21:06:51.640Z,6.82
2022-10-06T21:11:39.493Z,6.75
2022-10-06T21:16:26.683Z,3.50
2022-10-06T21:21:13.077Z,8.82
2022-10-06T21:25:58.963Z,8.88
2022-10-06T21:30:46.787Z,6.47
2022-10-06T21:35:32.165Z,8.43
2022-10-06T21:40:17.494Z,5.03
2022-10-06T21:45:02.834Z,9.68
2022-10-06T21:49:50.477Z,6.20
2022-10-06T21:54:35.923Z,6.75
2022-10-06T21:59:21.023Z,6.30
2022-10-06T22:04:06.887Z,7.25
2022-10-06T22:08:54.856Z,6.20
2022-10-06T22:13:40.681Z,6.93
2022-10-06T22:18:27.108Z,6.15
2022-10-06T22:23:12.976Z,6.28
2022-10-06T22:28:01.606Z,3.38
2022-10-06T22:32:46.714Z,8.90
2022-10-06T22:37:32.081Z,9.50
2022-10-06T22:42:17.643Z,8.32
2022-10-06T22:47:05.668Z,10.73
2022-10-06T22:51:50.824Z,6.45
2022-10-06T22:56:37.046Z,6.70
2022-10-06T23:01:22.480Z,6.28
2022-10-06T23:06:13.123Z,5.43
2022-10-06T23:10:58.243Z,7.65
2022-10-06T23:15:43.793Z,9.77
2022-10-06T23:20:29.003Z,11.23
2022-10-06T23:25:17.085Z,9.25
2022-10-06T23:30:02.255Z,7.32
2022-10-06T23:34:47.792Z,7.60
2022-10-06T23:39:32.853Z,7.30
2022-10-06T23:44:20.791Z,8.68
2022-10-06T23:49:06.072Z,7.68
2022-10-06T23:53:51.489Z,9.07
2022-10-06T23:58:36.942Z,9.73
